X  Lukk Metar værinformasjon om luftfart     EDDH Hamburg Helmut Schmidt Airport
Temperatur
17°C Temperatur
11°C Duggpunkt
68% Luftfuktighet



Vind
8 MPT
13 KM/T
4 M/S
7 KNP



300°
VNV
Nåværende forhold

Klart Klart
Trykk 1019.92 (hPa) - 30.12 (inHg)
Sikt 6.2 (mil) - 10 (km)
Flyplass
Flyplass-kode EDDH

Plassering: Hamburg Helmut Schmidt Airport
Avstand: 11 (mi)

Metar:
EDDH 062020Z AUTO 30007KT CAVOK 17/11 Q1020 NOSIG

Tid: 06-06-2023 20:20 CEST